• Join FlightAware (Why Join?)
  • Login
  • US Flag 
02:12AM EDT


 

Airport Tracker/Info


-or-


 

Live Flight TrackerFlight Track Log ✈ CHQ5046 ✈ 30-Apr-2013 ✈ KORD - KAZO

Flight Track Log - Related Links

Times and Time Zones

All times are in EDT time to prevent confusion due to time zone crossing. See the CHQ5046 flight status page for this flight to view local times or setup timezone preferences in your user account.

Time Position Orientation Groundspeed Altitude Reporting Facility
EDT Latitude Longitude Course Direction KTS MPH feet Rate Location/Type
06:36PM 41.9500 -87.9000 84° East 142 163 1,600  Level Chicago TRACON
06:37PM 41.9333 -87.8500 114° Southeast 236 272 3,700 2,280 Climbing Chicago TRACON
06:39PM 42.0167 -87.6486 90° East  Level FlightAware Approximate
06:39PM 42.0094 -87.7031 55° Northeast 285 328 8,000  Level Chicago Center
06:40PM 42.0310 -87.5690 37° Northeast  Level FlightAware Approximate
06:40PM 42.0231 -87.5856 81° East 312 359 10,400  Level Chicago Center
06:41PM 42.0405 -87.4817 84° East  Level FlightAware Approximate
06:41PM 42.0428 -87.4639 78° East 325 374 10,900  Level Chicago Center
06:42PM 42.0478 -87.3928 84° East  Level FlightAware Approximate
06:42PM 42.0628 -87.3506 77° East 320 368 10,900  Level Chicago Center
06:43PM 42.0872 -87.2117 77° East 319 367 10,900  Level Chicago Center
06:44PM 42.1056 -87.0975 78° East 315 362 10,900  Level Chicago Center
06:45PM 42.1164 -86.9833 83° East 310 357 11,000  Climbing Chicago Center
06:46PM 42.1183 -86.8664 89° East 312 359 11,000  Level Chicago Center
06:47PM 42.1228 -86.7494 87° East 314 361 11,000  Level Chicago Center
06:48PM 42.1272 -86.6275 87° East 309 356 11,000  Level Chicago Center
06:49PM 42.1300 -86.5128 88° East 308 354 11,000  Level Chicago Center
06:50PM 42.1347 -86.3950 87° East 313 360 11,000  Level Chicago Center
06:51PM 42.1392 -86.2558 87° East 310 357 11,000 -720 Level Chicago Center
06:52PM 42.1419 -86.1472 88° East 296 341 9,600 -1,620 Descending Chicago Center
06:53PM 42.1561 -86.0411 80° East 291 335 7,700 -1,740 Descending Chicago Center
06:54PM 42.1814 -85.9403 71° East 285 328 6,100 -1,620 Descending Chicago Center
06:55PM 42.2114 -85.8464 67° East 278 320 4,400 -1,440 Descending Chicago Center
06:56PM 42.2417 -85.7558 66° East 270 311 3,200 -960 Descending Chicago Center
06:58PM 42.2753 -85.6650 63° Northeast 239 275 2,500 -360 Descending Chicago Center
06:59PM 42.2836 -85.6019 80° East 213 245 2,500  Level Chicago Center